sensor_id;sensor_type;location;lat;lon;timestamp;temperature;humidity
7622;DHT22;3852;52.284;8.032;2023-01-04T00:00:44;7.90;99.90
7622;DHT22;3852;52.284;8.032;2023-01-04T00:03:10;8.00;99.90
7622;DHT22;3852;52.284;8.032;2023-01-04T00:05:36;7.90;99.90
7622;DHT22;3852;52.284;8.032;2023-01-04T00:08:02;7.90;99.90
7622;DHT22;3852;52.284;8.032;2023-01-04T00:10:28;7.90;99.90
7622;DHT22;3852;52.284;8.032;2023-01-04T00:12:54;7.90;99.90
7622;DHT22;3852;52.284;8.032;2023-01-04T00:15:22;7.80;99.90
7622;DHT22;3852;52.284;8.032;2023-01-04T00:17:48;7.90;99.90
7622;DHT22;3852;52.284;8.032;2023-01-04T00:20:14;8.00;99.90
7622;DHT22;3852;52.284;8.032;2023-01-04T00:22:40;8.00;99.90
7622;DHT22;3852;52.284;8.032;2023-01-04T00:25:06;8.00;99.90
7622;DHT22;3852;52.284;8.032;2023-01-04T00:27:32;7.90;99.90
7622;DHT22;3852;52.284;8.032;2023-01-04T00:29:58;7.90;99.90
7622;DHT22;3852;52.284;8.032;2023-01-04T00:32:24;7.90;99.90
7622;DHT22;3852;52.284;8.032;2023-01-04T00:34:49;7.90;99.90
7622;DHT22;3852;52.284;8.032;2023-01-04T00:37:15;8.00;99.90
7622;DHT22;3852;52.284;8.032;2023-01-04T00:39:41;8.00;99.90
7622;DHT22;3852;52.284;8.032;2023-01-04T00:42:07;8.00;99.90
7622;DHT22;3852;52.284;8.032;2023-01-04T00:44:34;8.00;99.90
7622;DHT22;3852;52.284;8.032;2023-01-04T00:47:01;8.10;99.90
7622;DHT22;3852;52.284;8.032;2023-01-04T00:49:28;8.00;99.90
7622;DHT22;3852;52.284;8.032;2023-01-04T00:51:55;8.00;99.90
7622;DHT22;3852;52.284;8.032;2023-01-04T00:54:21;8.00;99.90
7622;DHT22;3852;52.284;8.032;2023-01-04T00:56:47;8.10;99.90
7622;DHT22;3852;52.284;8.032;2023-01-04T00:59:17;8.10;99.90
7622;DHT22;3852;52.284;8.032;2023-01-04T01:01:45;8.10;99.90
7622;DHT22;3852;52.284;8.032;2023-01-04T01:04:15;8.20;99.90
7622;DHT22;3852;52.284;8.032;2023-01-04T01:06:42;8.30;99.90
7622;DHT22;3852;52.284;8.032;2023-01-04T01:09:08;8.20;99.90
7622;DHT22;3852;52.284;8.032;2023-01-04T01:11:34;8.20;99.90
7622;DHT22;3852;52.284;8.032;2023-01-04T01:14:02;8.30;99.90
7622;DHT22;3852;52.284;8.032;2023-01-04T01:16:28;8.30;99.90
7622;DHT22;3852;52.284;8.032;2023-01-04T01:18:54;8.30;99.90
7622;DHT22;3852;52.284;8.032;2023-01-04T01:21:23;8.30;99.90
7622;DHT22;3852;52.284;8.032;2023-01-04T01:23:53;8.30;99.90
7622;DHT22;3852;52.284;8.032;2023-01-04T01:26:22;8.40;99.90
7622;DHT22;3852;52.284;8.032;2023-01-04T01:28:49;8.50;99.90
7622;DHT22;3852;52.284;8.032;2023-01-04T01:31:24;8.50;99.90
7622;DHT22;3852;52.284;8.032;2023-01-04T01:33:52;8.60;99.90
7622;DHT22;3852;52.284;8.032;2023-01-04T01:36:20;8.60;99.90
7622;DHT22;3852;52.284;8.032;2023-01-04T01:38:47;8.50;99.90
7622;DHT22;3852;52.284;8.032;2023-01-04T01:41:25;8.60;99.90
7622;DHT22;3852;52.284;8.032;2023-01-04T01:48:59;8.50;99.90
7622;DHT22;3852;52.284;8.032;2023-01-04T01:51:30;8.60;99.90
7622;DHT22;3852;52.284;8.032;2023-01-04T01:54:07;8.60;99.90
7622;DHT22;3852;52.284;8.032;2023-01-04T01:56:37;8.60;99.90
7622;DHT22;3852;52.284;8.032;2023-01-04T01:59:05;8.50;99.90
7622;DHT22;3852;52.284;8.032;2023-01-04T02:01:32;8.50;99.90
7622;DHT22;3852;52.284;8.032;2023-01-04T02:03:58;8.40;99.90
7622;DHT22;3852;52.284;8.032;2023-01-04T02:06:32;8.30;99.90
7622;DHT22;3852;52.284;8.032;2023-01-04T02:09:02;8.20;99.90
7622;DHT22;3852;52.284;8.032;2023-01-04T02:11:28;8.10;99.90
7622;DHT22;3852;52.284;8.032;2023-01-04T02:13:55;8.00;99.90
7622;DHT22;3852;52.284;8.032;2023-01-04T02:22:35;7.80;99.90
7622;DHT22;3852;52.284;8.032;2023-01-04T02:43:02;7.60;99.90
7622;DHT22;3852;52.284;8.032;2023-01-04T02:46:09;7.60;99.90
7622;DHT22;3852;52.284;8.032;2023-01-04T02:48:39;7.60;99.90
7622;DHT22;3852;52.284;8.032;2023-01-04T02:51:35;7.60;99.90
7622;DHT22;3852;52.284;8.032;2023-01-04T02:54:11;7.60;99.90
7622;DHT22;3852;52.284;8.032;2023-01-04T03:03:12;7.60;99.90
7622;DHT22;3852;52.284;8.032;2023-01-04T03:06:14;7.60;99.90
7622;DHT22;3852;52.284;8.032;2023-01-04T03:09:08;7.50;99.90
7622;DHT22;3852;52.284;8.032;2023-01-04T03:11:49;7.60;99.90
7622;DHT22;3852;52.284;8.032;2023-01-04T03:14:44;7.60;99.90
7622;DHT22;3852;52.284;8.032;2023-01-04T03:17:18;7.60;99.90
7622;DHT22;3852;52.284;8.032;2023-01-04T03:19:47;7.60;99.90
7622;DHT22;3852;52.284;8.032;2023-01-04T03:25:22;7.70;99.90
7622;DHT22;3852;52.284;8.032;2023-01-04T03:28:27;7.70;99.90
7622;DHT22;3852;52.284;8.032;2023-01-04T03:31:20;7.80;99.90
7622;DHT22;3852;52.284;8.032;2023-01-04T03:34:08;7.80;99.90
7622;DHT22;3852;52.284;8.032;2023-01-04T03:39:44;7.90;99.90
7622;DHT22;3852;52.284;8.032;2023-01-04T03:42:55;7.90;99.90
7622;DHT22;3852;52.284;8.032;2023-01-04T03:45:51;8.00;99.90
7622;DHT22;3852;52.284;8.032;2023-01-04T03:48:56;8.00;99.90
7622;DHT22;3852;52.284;8.032;2023-01-04T03:51:31;8.00;99.90
7622;DHT22;3852;52.284;8.032;2023-01-04T03:54:20;8.00;99.90
7622;DHT22;3852;52.284;8.032;2023-01-04T03:56:49;8.00;99.90
7622;DHT22;3852;52.284;8.032;2023-01-04T03:59:16;8.00;99.90
7622;DHT22;3852;52.284;8.032;2023-01-04T04:01:43;8.00;99.90
7622;DHT22;3852;52.284;8.032;2023-01-04T04:04:10;8.10;99.90
7622;DHT22;3852;52.284;8.032;2023-01-04T04:06:54;8.10;99.90
7622;DHT22;3852;52.284;8.032;2023-01-04T04:09:39;8.20;99.90
7622;DHT22;3852;52.284;8.032;2023-01-04T04:12:04;8.10;99.90
7622;DHT22;3852;52.284;8.032;2023-01-04T04:14:30;8.30;99.90
7622;DHT22;3852;52.284;8.032;2023-01-04T04:16:56;8.30;99.90
7622;DHT22;3852;52.284;8.032;2023-01-04T04:19:22;8.30;99.90
7622;DHT22;3852;52.284;8.032;2023-01-04T04:21:48;8.30;99.90
7622;DHT22;3852;52.284;8.032;2023-01-04T04:24:19;8.30;99.90
7622;DHT22;3852;52.284;8.032;2023-01-04T04:26:46;8.30;99.90
7622;DHT22;3852;52.284;8.032;2023-01-04T04:29:12;8.30;99.90
7622;DHT22;3852;52.284;8.032;2023-01-04T04:31:38;8.30;99.90
7622;DHT22;3852;52.284;8.032;2023-01-04T04:34:03;8.30;99.90
7622;DHT22;3852;52.284;8.032;2023-01-04T04:36:29;8.30;99.90
7622;DHT22;3852;52.284;8.032;2023-01-04T04:38:55;8.40;99.90
7622;DHT22;3852;52.284;8.032;2023-01-04T04:41:21;8.40;99.90
7622;DHT22;3852;52.284;8.032;2023-01-04T04:44:08;8.40;99.90
7622;DHT22;3852;52.284;8.032;2023-01-04T04:46:42;8.40;99.90
7622;DHT22;3852;52.284;8.032;2023-01-04T04:49:09;8.40;99.90
7622;DHT22;3852;52.284;8.032;2023-01-04T04:51:36;8.40;99.90
7622;DHT22;3852;52.284;8.032;2023-01-04T04:54:03;8.40;99.90
7622;DHT22;3852;52.284;8.032;2023-01-04T04:56:31;8.50;99.90
7622;DHT22;3852;52.284;8.032;2023-01-04T04:58:57;8.50;99.90
7622;DHT22;3852;52.284;8.032;2023-01-04T05:01:23;8.50;99.90
7622;DHT22;3852;52.284;8.032;2023-01-04T05:03:49;8.50;99.90
7622;DHT22;3852;52.284;8.032;2023-01-04T05:06:15;8.50;99.90
7622;DHT22;3852;52.284;8.032;2023-01-04T05:08:41;8.50;99.90
7622;DHT22;3852;52.284;8.032;2023-01-04T05:11:09;8.50;99.90
7622;DHT22;3852;52.284;8.032;2023-01-04T05:13:36;8.50;99.90
7622;DHT22;3852;52.284;8.032;2023-01-04T05:16:04;8.60;99.90
7622;DHT22;3852;52.284;8.032;2023-01-04T05:18:31;8.60;99.90
7622;DHT22;3852;52.284;8.032;2023-01-04T05:20:57;8.60;99.90
7622;DHT22;3852;52.284;8.032;2023-01-04T05:23:23;8.60;99.90
7622;DHT22;3852;52.284;8.032;2023-01-04T05:25:55;8.60;99.90
7622;DHT22;3852;52.284;8.032;2023-01-04T05:28:22;8.80;99.90
7622;DHT22;3852;52.284;8.032;2023-01-04T05:30:49;8.80;99.90
7622;DHT22;3852;52.284;8.032;2023-01-04T05:33:25;8.80;99.90
7622;DHT22;3852;52.284;8.032;2023-01-04T05:35:54;8.90;99.90
7622;DHT22;3852;52.284;8.032;2023-01-04T05:38:21;8.80;99.90
7622;DHT22;3852;52.284;8.032;2023-01-04T05:40:48;8.80;99.90
7622;DHT22;3852;52.284;8.032;2023-01-04T05:43:16;8.80;99.90
7622;DHT22;3852;52.284;8.032;2023-01-04T05:45:46;8.90;99.90
7622;DHT22;3852;52.284;8.032;2023-01-04T05:48:13;8.90;99.90
7622;DHT22;3852;52.284;8.032;2023-01-04T05:50:39;8.90;99.90
7622;DHT22;3852;52.284;8.032;2023-01-04T05:53:05;8.90;99.90
7622;DHT22;3852;52.284;8.032;2023-01-04T05:55:31;8.90;99.90
7622;DHT22;3852;52.284;8.032;2023-01-04T05:57:58;8.90;99.90
7622;DHT22;3852;52.284;8.032;2023-01-04T06:00:24;9.00;99.90
7622;DHT22;3852;52.284;8.032;2023-01-04T06:02:53;9.00;99.90
7622;DHT22;3852;52.284;8.032;2023-01-04T06:05:20;9.00;99.90
7622;DHT22;3852;52.284;8.032;2023-01-04T06:07:46;9.10;99.90
7622;DHT22;3852;52.284;8.032;2023-01-04T06:10:13;9.10;99.90
7622;DHT22;3852;52.284;8.032;2023-01-04T06:12:39;9.10;99.90
7622;DHT22;3852;52.284;8.032;2023-01-04T06:15:06;9.20;99.90
7622;DHT22;3852;52.284;8.032;2023-01-04T06:17:33;9.20;99.90
7622;DHT22;3852;52.284;8.032;2023-01-04T06:20:00;9.20;99.90
7622;DHT22;3852;52.284;8.032;2023-01-04T06:22:27;9.20;99.90
7622;DHT22;3852;52.284;8.032;2023-01-04T06:24:53;9.20;99.90
7622;DHT22;3852;52.284;8.032;2023-01-04T06:27:19;9.20;99.90
7622;DHT22;3852;52.284;8.032;2023-01-04T06:29:45;9.30;99.90
7622;DHT22;3852;52.284;8.032;2023-01-04T06:32:10;9.30;99.90
7622;DHT22;3852;52.284;8.032;2023-01-04T06:34:36;9.20;99.90
7622;DHT22;3852;52.284;8.032;2023-01-04T06:37:03;9.30;99.90
7622;DHT22;3852;52.284;8.032;2023-01-04T06:39:30;9.30;99.90
7622;DHT22;3852;52.284;8.032;2023-01-04T06:41:56;9.30;99.90
7622;DHT22;3852;52.284;8.032;2023-01-04T06:44:22;9.40;99.90
7622;DHT22;3852;52.284;8.032;2023-01-04T06:46:50;9.40;99.90
7622;DHT22;3852;52.284;8.032;2023-01-04T06:49:16;9.40;99.90
7622;DHT22;3852;52.284;8.032;2023-01-04T06:51:42;9.40;99.90
7622;DHT22;3852;52.284;8.032;2023-01-04T06:54:11;9.50;99.90
7622;DHT22;3852;52.284;8.032;2023-01-04T06:56:38;9.50;99.90
7622;DHT22;3852;52.284;8.032;2023-01-04T06:59:05;9.50;99.90
7622;DHT22;3852;52.284;8.032;2023-01-04T07:01:31;9.50;99.90
7622;DHT22;3852;52.284;8.032;2023-01-04T07:03:57;9.50;99.90
7622;DHT22;3852;52.284;8.032;2023-01-04T07:06:23;9.60;99.90
7622;DHT22;3852;52.284;8.032;2023-01-04T07:08:49;9.60;99.90
7622;DHT22;3852;52.284;8.032;2023-01-04T07:11:15;9.60;99.90
7622;DHT22;3852;52.284;8.032;2023-01-04T07:13:40;9.70;99.90
7622;DHT22;3852;52.284;8.032;2023-01-04T07:16:06;9.70;99.90
7622;DHT22;3852;52.284;8.032;2023-01-04T07:18:32;9.70;99.90
7622;DHT22;3852;52.284;8.032;2023-01-04T07:20:58;9.80;99.90
7622;DHT22;3852;52.284;8.032;2023-01-04T07:23:23;9.80;99.90
7622;DHT22;3852;52.284;8.032;2023-01-04T07:25:49;9.90;99.90
7622;DHT22;3852;52.284;8.032;2023-01-04T07:28:15;9.80;99.90
7622;DHT22;3852;52.284;8.032;2023-01-04T07:31:07;9.80;99.90
7622;DHT22;3852;52.284;8.032;2023-01-04T07:33:33;9.80;99.90
7622;DHT22;3852;52.284;8.032;2023-01-04T07:36:06;9.90;99.90
7622;DHT22;3852;52.284;8.032;2023-01-04T07:38:33;9.90;99.90
7622;DHT22;3852;52.284;8.032;2023-01-04T07:40:59;9.80;99.90
7622;DHT22;3852;52.284;8.032;2023-01-04T07:43:25;9.80;99.90
7622;DHT22;3852;52.284;8.032;2023-01-04T07:45:51;9.80;99.90
7622;DHT22;3852;52.284;8.032;2023-01-04T07:48:17;9.70;99.90
7622;DHT22;3852;52.284;8.032;2023-01-04T07:50:44;9.70;99.90
7622;DHT22;3852;52.284;8.032;2023-01-04T07:53:10;9.70;99.90
7622;DHT22;3852;52.284;8.032;2023-01-04T07:55:37;9.80;99.90
7622;DHT22;3852;52.284;8.032;2023-01-04T07:58:03;9.80;99.90
7622;DHT22;3852;52.284;8.032;2023-01-04T08:00:28;9.70;99.90
7622;DHT22;3852;52.284;8.032;2023-01-04T08:02:54;9.80;99.90
7622;DHT22;3852;52.284;8.032;2023-01-04T08:05:20;9.80;99.90
7622;DHT22;3852;52.284;8.032;2023-01-04T08:07:49;9.80;99.90
7622;DHT22;3852;52.284;8.032;2023-01-04T08:10:16;9.90;99.90
7622;DHT22;3852;52.284;8.032;2023-01-04T08:12:41;9.90;99.90
7622;DHT22;3852;52.284;8.032;2023-01-04T08:15:07;9.90;99.90
7622;DHT22;3852;52.284;8.032;2023-01-04T08:17:33;9.90;99.90
7622;DHT22;3852;52.284;8.032;2023-01-04T08:19:59;9.90;99.90
7622;DHT22;3852;52.284;8.032;2023-01-04T08:22:26;10.00;99.90
7622;DHT22;3852;52.284;8.032;2023-01-04T08:24:51;10.00;99.90
7622;DHT22;3852;52.284;8.032;2023-01-04T08:27:17;10.00;99.90
7622;DHT22;3852;52.284;8.032;2023-01-04T08:29:43;10.00;99.90
7622;DHT22;3852;52.284;8.032;2023-01-04T08:32:09;10.00;99.90
7622;DHT22;3852;52.284;8.032;2023-01-04T08:34:35;10.00;99.90
7622;DHT22;3852;52.284;8.032;2023-01-04T08:37:00;10.10;99.90
7622;DHT22;3852;52.284;8.032;2023-01-04T08:39:26;10.10;99.90
7622;DHT22;3852;52.284;8.032;2023-01-04T08:41:53;10.10;99.90
7622;DHT22;3852;52.284;8.032;2023-01-04T08:44:21;10.10;99.90
7622;DHT22;3852;52.284;8.032;2023-01-04T08:46:49;10.10;99.90
7622;DHT22;3852;52.284;8.032;2023-01-04T08:49:16;10.20;99.90
7622;DHT22;3852;52.284;8.032;2023-01-04T08:51:42;10.30;99.90
7622;DHT22;3852;52.284;8.032;2023-01-04T08:54:09;10.20;99.90
7622;DHT22;3852;52.284;8.032;2023-01-04T08:56:35;10.30;99.90
7622;DHT22;3852;52.284;8.032;2023-01-04T08:59:01;10.30;99.90
7622;DHT22;3852;52.284;8.032;2023-01-04T09:01:27;10.30;99.90
7622;DHT22;3852;52.284;8.032;2023-01-04T09:03:55;10.30;99.90
7622;DHT22;3852;52.284;8.032;2023-01-04T09:06:21;10.40;99.90
7622;DHT22;3852;52.284;8.032;2023-01-04T09:08:47;10.40;99.90
7622;DHT22;3852;52.284;8.032;2023-01-04T09:11:15;10.40;99.90
7622;DHT22;3852;52.284;8.032;2023-01-04T09:13:43;10.40;99.90
7622;DHT22;3852;52.284;8.032;2023-01-04T09:16:15;10.40;99.90
7622;DHT22;3852;52.284;8.032;2023-01-04T09:18:43;10.40;99.90
7622;DHT22;3852;52.284;8.032;2023-01-04T09:21:14;10.40;99.90
7622;DHT22;3852;52.284;8.032;2023-01-04T09:23:42;10.50;99.90
7622;DHT22;3852;52.284;8.032;2023-01-04T09:26:15;10.50;99.90
7622;DHT22;3852;52.284;8.032;2023-01-04T09:28:42;10.50;99.90
7622;DHT22;3852;52.284;8.032;2023-01-04T09:31:10;10.40;99.90
7622;DHT22;3852;52.284;8.032;2023-01-04T09:33:37;10.50;99.90
7622;DHT22;3852;52.284;8.032;2023-01-04T09:36:05;10.40;99.90
7622;DHT22;3852;52.284;8.032;2023-01-04T09:38:33;10.50;99.90
7622;DHT22;3852;52.284;8.032;2023-01-04T09:43:56;10.40;99.90
7622;DHT22;3852;52.284;8.032;2023-01-04T09:46:37;10.50;99.90
7622;DHT22;3852;52.284;8.032;2023-01-04T09:52:08;10.50;99.90
7622;DHT22;3852;52.284;8.032;2023-01-04T09:54:54;10.50;99.90
7622;DHT22;3852;52.284;8.032;2023-01-04T09:57:31;10.50;99.90
7622;DHT22;3852;52.284;8.032;2023-01-04T10:00:20;10.50;99.90
7622;DHT22;3852;52.284;8.032;2023-01-04T10:02:57;10.50;99.90
7622;DHT22;3852;52.284;8.032;2023-01-04T10:05:29;10.50;99.90
7622;DHT22;3852;52.284;8.032;2023-01-04T10:07:56;10.50;99.90
7622;DHT22;3852;52.284;8.032;2023-01-04T10:10:55;10.50;99.90
7622;DHT22;3852;52.284;8.032;2023-01-04T10:19:25;10.60;99.90
7622;DHT22;3852;52.284;8.032;2023-01-04T10:21:57;10.60;99.90
7622;DHT22;3852;52.284;8.032;2023-01-04T10:27:36;10.70;99.90
7622;DHT22;3852;52.284;8.032;2023-01-04T10:30:15;10.60;99.90
7622;DHT22;3852;52.284;8.032;2023-01-04T10:35:27;10.60;99.90
7622;DHT22;3852;52.284;8.032;2023-01-04T10:38:09;10.70;99.90
7622;DHT22;3852;52.284;8.032;2023-01-04T10:40:40;10.70;99.90
7622;DHT22;3852;52.284;8.032;2023-01-04T10:43:11;10.70;99.90
7622;DHT22;3852;52.284;8.032;2023-01-04T10:51:04;10.70;99.90
7622;DHT22;3852;52.284;8.032;2023-01-04T10:53:39;10.70;99.90
7622;DHT22;3852;52.284;8.032;2023-01-04T10:56:30;10.70;99.90
7622;DHT22;3852;52.284;8.032;2023-01-04T10:59:08;10.70;99.90
7622;DHT22;3852;52.284;8.032;2023-01-04T11:07:04;10.80;99.90
7622;DHT22;3852;52.284;8.032;2023-01-04T11:09:39;10.80;99.90
7622;DHT22;3852;52.284;8.032;2023-01-04T11:12:12;10.90;99.90
7622;DHT22;3852;52.284;8.032;2023-01-04T11:14:40;10.90;99.90
7622;DHT22;3852;52.284;8.032;2023-01-04T11:17:08;10.90;99.90
7622;DHT22;3852;52.284;8.032;2023-01-04T11:19:35;10.90;99.90
7622;DHT22;3852;52.284;8.032;2023-01-04T11:22:14;10.90;99.90
7622;DHT22;3852;52.284;8.032;2023-01-04T11:24:59;10.90;99.90
7622;DHT22;3852;52.284;8.032;2023-01-04T11:27:43;11.00;99.90
7622;DHT22;3852;52.284;8.032;2023-01-04T11:30:16;11.00;99.90
7622;DHT22;3852;52.284;8.032;2023-01-04T11:32:56;11.10;99.90
7622;DHT22;3852;52.284;8.032;2023-01-04T11:35:57;11.00;99.90
7622;DHT22;3852;52.284;8.032;2023-01-04T11:38:24;11.10;99.90
7622;DHT22;3852;52.284;8.032;2023-01-04T11:43:27;11.10;99.90
7622;DHT22;3852;52.284;8.032;2023-01-04T11:46:20;11.10;99.90
7622;DHT22;3852;52.284;8.032;2023-01-04T11:48:49;11.20;99.90
7622;DHT22;3852;52.284;8.032;2023-01-04T11:53:57;11.20;99.90
7622;DHT22;3852;52.284;8.032;2023-01-04T11:56:26;11.20;99.90
7622;DHT22;3852;52.284;8.032;2023-01-04T11:59:10;11.20;99.90
7622;DHT22;3852;52.284;8.032;2023-01-04T12:01:45;11.20;99.90
7622;DHT22;3852;52.284;8.032;2023-01-04T12:04:20;11.20;99.90
7622;DHT22;3852;52.284;8.032;2023-01-04T12:09:21;11.20;99.90
7622;DHT22;3852;52.284;8.032;2023-01-04T12:11:48;11.20;99.90
7622;DHT22;3852;52.284;8.032;2023-01-04T12:14:24;11.30;99.90
7622;DHT22;3852;52.284;8.032;2023-01-04T12:19:36;11.30;99.90
7622;DHT22;3852;52.284;8.032;2023-01-04T12:25:03;11.40;99.90
7622;DHT22;3852;52.284;8.032;2023-01-04T12:27:32;11.40;99.90
7622;DHT22;3852;52.284;8.032;2023-01-04T12:30:00;11.40;99.90
7622;DHT22;3852;52.284;8.032;2023-01-04T12:34:54;11.40;99.90
7622;DHT22;3852;52.284;8.032;2023-01-04T12:37:43;11.40;99.90
7622;DHT22;3852;52.284;8.032;2023-01-04T12:43:35;11.40;99.90
7622;DHT22;3852;52.284;8.032;2023-01-04T12:54:48;11.40;99.90
7622;DHT22;3852;52.284;8.032;2023-01-04T13:00:06;11.40;99.90
7622;DHT22;3852;52.284;8.032;2023-01-04T13:07:54;11.40;99.90
7622;DHT22;3852;52.284;8.032;2023-01-04T13:10:38;11.40;99.90
7622;DHT22;3852;52.284;8.032;2023-01-04T13:13:42;11.50;99.90
7622;DHT22;3852;52.284;8.032;2023-01-04T13:16:33;11.50;99.90
7622;DHT22;3852;52.284;8.032;2023-01-04T13:19:26;11.50;99.90
7622;DHT22;3852;52.284;8.032;2023-01-04T13:21:53;11.60;99.90
7622;DHT22;3852;52.284;8.032;2023-01-04T13:24:27;11.60;99.90
7622;DHT22;3852;52.284;8.032;2023-01-04T13:26:55;11.60;99.90
7622;DHT22;3852;52.284;8.032;2023-01-04T13:29:30;11.60;99.90
7622;DHT22;3852;52.284;8.032;2023-01-04T13:35:08;11.60;99.90
7622;DHT22;3852;52.284;8.032;2023-01-04T13:37:37;11.70;99.90
7622;DHT22;3852;52.284;8.032;2023-01-04T13:48:33;11.70;99.90
7622;DHT22;3852;52.284;8.032;2023-01-04T13:51:15;11.70;99.90
7622;DHT22;3852;52.284;8.032;2023-01-04T13:54:01;11.70;99.90
7622;DHT22;3852;52.284;8.032;2023-01-04T13:56:31;11.70;99.90
7622;DHT22;3852;52.284;8.032;2023-01-04T13:58:58;11.70;99.90
7622;DHT22;3852;52.284;8.032;2023-01-04T14:01:34;11.70;99.90
7622;DHT22;3852;52.284;8.032;2023-01-04T14:04:24;11.80;99.90
7622;DHT22;3852;52.284;8.032;2023-01-04T14:06:54;11.80;99.90
7622;DHT22;3852;52.284;8.032;2023-01-04T14:09:27;11.70;99.90
7622;DHT22;3852;52.284;8.032;2023-01-04T14:11:59;11.70;99.90
7622;DHT22;3852;52.284;8.032;2023-01-04T14:14:58;11.70;99.90
7622;DHT22;3852;52.284;8.032;2023-01-04T14:17:35;11.80;99.90
7622;DHT22;3852;52.284;8.032;2023-01-04T14:36:20;11.80;99.90
7622;DHT22;3852;52.284;8.032;2023-01-04T14:39:07;11.80;99.90
7622;DHT22;3852;52.284;8.032;2023-01-04T14:44:15;11.90;99.90
7622;DHT22;3852;52.284;8.032;2023-01-04T14:46:44;11.90;99.90
7622;DHT22;3852;52.284;8.032;2023-01-04T14:49:12;11.90;99.90
7622;DHT22;3852;52.284;8.032;2023-01-04T14:51:46;11.90;99.90
7622;DHT22;3852;52.284;8.032;2023-01-04T14:54:15;12.00;99.90
7622;DHT22;3852;52.284;8.032;2023-01-04T14:56:42;11.90;99.90
7622;DHT22;3852;52.284;8.032;2023-01-04T14:59:08;12.00;99.90
7622;DHT22;3852;52.284;8.032;2023-01-04T15:01:35;11.90;99.90
7622;DHT22;3852;52.284;8.032;2023-01-04T15:04:02;12.00;99.90
7622;DHT22;3852;52.284;8.032;2023-01-04T15:06:28;12.00;99.90
7622;DHT22;3852;52.284;8.032;2023-01-04T15:08:54;12.00;99.90
7622;DHT22;3852;52.284;8.032;2023-01-04T15:11:20;12.10;99.90
7622;DHT22;3852;52.284;8.032;2023-01-04T15:13:46;12.00;99.90
7622;DHT22;3852;52.284;8.032;2023-01-04T15:16:14;12.00;99.90
7622;DHT22;3852;52.284;8.032;2023-01-04T15:18:42;12.00;99.90
7622;DHT22;3852;52.284;8.032;2023-01-04T15:21:10;12.00;99.90
7622;DHT22;3852;52.284;8.032;2023-01-04T15:23:37;12.10;99.90
7622;DHT22;3852;52.284;8.032;2023-01-04T15:26:06;12.10;99.90
7622;DHT22;3852;52.284;8.032;2023-01-04T15:28:34;12.10;99.90
7622;DHT22;3852;52.284;8.032;2023-01-04T15:30:59;12.10;99.90
7622;DHT22;3852;52.284;8.032;2023-01-04T15:33:29;12.10;99.90
7622;DHT22;3852;52.284;8.032;2023-01-04T15:36:01;12.10;99.90
7622;DHT22;3852;52.284;8.032;2023-01-04T15:38:28;12.10;99.90
7622;DHT22;3852;52.284;8.032;2023-01-04T15:41:02;12.10;99.90
7622;DHT22;3852;52.284;8.032;2023-01-04T15:43:29;12.20;99.90
7622;DHT22;3852;52.284;8.032;2023-01-04T15:46:02;12.20;99.90
7622;DHT22;3852;52.284;8.032;2023-01-04T15:48:31;12.20;99.90
7622;DHT22;3852;52.284;8.032;2023-01-04T15:51:04;12.20;99.90
7622;DHT22;3852;52.284;8.032;2023-01-04T15:53:34;12.20;99.90
7622;DHT22;3852;52.284;8.032;2023-01-04T15:56:08;12.20;99.90
7622;DHT22;3852;52.284;8.032;2023-01-04T15:58:35;12.20;99.90
7622;DHT22;3852;52.284;8.032;2023-01-04T16:01:13;12.20;99.90
7622;DHT22;3852;52.284;8.032;2023-01-04T16:03:39;12.30;99.90
7622;DHT22;3852;52.284;8.032;2023-01-04T16:06:07;12.30;99.90
7622;DHT22;3852;52.284;8.032;2023-01-04T16:08:36;12.30;99.90
7622;DHT22;3852;52.284;8.032;2023-01-04T16:11:10;12.30;99.90
7622;DHT22;3852;52.284;8.032;2023-01-04T16:13:46;12.30;99.90
7622;DHT22;3852;52.284;8.032;2023-01-04T16:16:12;12.20;99.90
7622;DHT22;3852;52.284;8.032;2023-01-04T16:18:44;12.20;99.90
7622;DHT22;3852;52.284;8.032;2023-01-04T16:21:10;12.20;99.90
7622;DHT22;3852;52.284;8.032;2023-01-04T16:23:36;12.20;99.90
7622;DHT22;3852;52.284;8.032;2023-01-04T16:26:04;12.20;99.90
7622;DHT22;3852;52.284;8.032;2023-01-04T16:28:38;12.20;99.90
7622;DHT22;3852;52.284;8.032;2023-01-04T16:31:07;12.20;99.90
7622;DHT22;3852;52.284;8.032;2023-01-04T16:33:33;12.20;99.90
7622;DHT22;3852;52.284;8.032;2023-01-04T16:36:09;12.30;99.90
7622;DHT22;3852;52.284;8.032;2023-01-04T16:38:40;12.30;99.90
7622;DHT22;3852;52.284;8.032;2023-01-04T16:41:10;12.30;99.90
7622;DHT22;3852;52.284;8.032;2023-01-04T16:43:51;12.30;99.90
7622;DHT22;3852;52.284;8.032;2023-01-04T16:46:31;12.30;99.90
7622;DHT22;3852;52.284;8.032;2023-01-04T16:49:05;12.30;99.90
7622;DHT22;3852;52.284;8.032;2023-01-04T16:51:35;12.30;99.90
7622;DHT22;3852;52.284;8.032;2023-01-04T16:54:04;12.30;99.90
7622;DHT22;3852;52.284;8.032;2023-01-04T16:56:32;12.40;99.90
7622;DHT22;3852;52.284;8.032;2023-01-04T16:58:58;12.40;99.90
7622;DHT22;3852;52.284;8.032;2023-01-04T17:01:32;12.30;99.90
7622;DHT22;3852;52.284;8.032;2023-01-04T17:04:06;12.30;99.90
7622;DHT22;3852;52.284;8.032;2023-01-04T17:06:37;12.40;99.90
7622;DHT22;3852;52.284;8.032;2023-01-04T17:09:05;12.50;99.90
7622;DHT22;3852;52.284;8.032;2023-01-04T17:11:35;12.50;99.90
7622;DHT22;3852;52.284;8.032;2023-01-04T17:14:01;12.40;99.90
7622;DHT22;3852;52.284;8.032;2023-01-04T17:16:28;12.40;99.90
7622;DHT22;3852;52.284;8.032;2023-01-04T17:18:55;12.40;99.90
7622;DHT22;3852;52.284;8.032;2023-01-04T17:21:23;12.40;99.90
7622;DHT22;3852;52.284;8.032;2023-01-04T17:23:52;12.40;99.90
7622;DHT22;3852;52.284;8.032;2023-01-04T17:26:25;12.40;99.90
7622;DHT22;3852;52.284;8.032;2023-01-04T17:28:54;12.50;99.90
7622;DHT22;3852;52.284;8.032;2023-01-04T17:31:24;12.50;99.90
7622;DHT22;3852;52.284;8.032;2023-01-04T17:33:52;12.40;99.90
7622;DHT22;3852;52.284;8.032;2023-01-04T17:36:19;12.40;99.90
7622;DHT22;3852;52.284;8.032;2023-01-04T17:38:46;12.30;99.90
7622;DHT22;3852;52.284;8.032;2023-01-04T17:41:20;12.30;99.90
7622;DHT22;3852;52.284;8.032;2023-01-04T17:43:50;12.30;99.90
7622;DHT22;3852;52.284;8.032;2023-01-04T17:46:20;12.30;99.90
7622;DHT22;3852;52.284;8.032;2023-01-04T17:48:47;12.30;99.90
7622;DHT22;3852;52.284;8.032;2023-01-04T17:51:16;12.30;99.90
7622;DHT22;3852;52.284;8.032;2023-01-04T17:53:44;12.20;99.90
7622;DHT22;3852;52.284;8.032;2023-01-04T17:56:14;12.30;99.90
7622;DHT22;3852;52.284;8.032;2023-01-04T17:58:42;12.30;99.90
7622;DHT22;3852;52.284;8.032;2023-01-04T18:01:10;12.30;99.90
7622;DHT22;3852;52.284;8.032;2023-01-04T18:03:40;12.30;99.90
7622;DHT22;3852;52.284;8.032;2023-01-04T18:06:06;12.30;99.90
7622;DHT22;3852;52.284;8.032;2023-01-04T18:08:32;12.20;99.90
7622;DHT22;3852;52.284;8.032;2023-01-04T18:11:00;12.10;99.90
7622;DHT22;3852;52.284;8.032;2023-01-04T18:13:27;12.00;99.90
7622;DHT22;3852;52.284;8.032;2023-01-04T18:16:01;12.00;99.90
7622;DHT22;3852;52.284;8.032;2023-01-04T18:18:28;12.00;99.90
7622;DHT22;3852;52.284;8.032;2023-01-04T18:20:54;12.10;99.90
7622;DHT22;3852;52.284;8.032;2023-01-04T18:23:20;12.10;99.90
7622;DHT22;3852;52.284;8.032;2023-01-04T18:25:48;12.10;99.90
7622;DHT22;3852;52.284;8.032;2023-01-04T18:28:14;12.10;99.90
7622;DHT22;3852;52.284;8.032;2023-01-04T18:30:40;12.10;99.90
7622;DHT22;3852;52.284;8.032;2023-01-04T18:33:06;12.10;99.90
7622;DHT22;3852;52.284;8.032;2023-01-04T18:35:33;12.20;99.90
7622;DHT22;3852;52.284;8.032;2023-01-04T18:37:59;12.10;99.90
7622;DHT22;3852;52.284;8.032;2023-01-04T18:40:25;12.20;99.90
7622;DHT22;3852;52.284;8.032;2023-01-04T18:42:51;12.20;99.90
7622;DHT22;3852;52.284;8.032;2023-01-04T18:45:18;12.10;99.90
7622;DHT22;3852;52.284;8.032;2023-01-04T18:47:44;12.00;99.90